Nearby METAR Reports

 

LFLC - Clermont/Aulnat, France
Distance from station: S 1mi, 2km
Updated: Thu, 17-Oct-2019 2:30am CEST
Mostly Cloudy
Mostly Cloudy
 Wind from S
Wind: S 15 mph , 24 km/h
Temperature: 59°F , 15°C
Dew Point: 48°F , 9°C
Humidity: 68%
Barometer: 29.97 inHg , 1015 hPa
Clouds: Mostly Cloudy
Visibility: 6 miles , 10 km
Cloud details: Few Clouds 5400 ft
Partly Cloudy 6800 ft
Mostly Cloudy 18000 ft
2019/10/17 00:30 LFLC 170030Z AUTO 17013KT 9999 FEW054 SCT068 BKN180 15/09 Q1015 NOSIG
LFMH - St Etienne/Bouth, France
Distance from station: ESE 57mi, 92km
Updated: Thu, 17-Oct-2019 2:30am CEST
Clear
Clear
 Wind from ESE
Wind: ESE 6 mph , 9 km/h
Temperature: 55°F , 13°C
Dew Point: 46°F , 8°C
Humidity: 72%
Barometer: 30 inHg , 1016 hPa
Summary: Clear
Visibility: greater than 7 miles , 10 km
2019/10/17 00:30 LFMH 170030Z AUTO 12005KT 090V150 CAVOK 13/08 Q1016
 
LFLN - Saint Yan, France
Distance from station: NE 60mi, 96km
Updated: Thu, 17-Oct-2019 2:30am CEST
Overcast
Overcast
 Wind from SE
Wind: SE 5 mph , 7 km/h
Temperature: 57°F , 14°C
Dew Point: 52°F , 11°C
Humidity: 82%
Barometer: 29.97 inHg , 1015 hPa
Clouds: Overcast
Visibility: 6 miles , 10 km
Cloud details: Overcast 4500 ft
2019/10/17 00:30 LFLN 170030Z AUTO 14004KT 9999 OVC045 14/11 Q1015
LFLW - Aurillac (aut), France
Distance from station: SSW 72mi, 116km
Updated: Thu, 17-Oct-2019 2:30am CEST
Clear
Clear
 Wind from E
Wind: E 7 mph , 11 km/h
Temperature: 52°F , 11°C
Dew Point: 48°F , 9°C
Humidity: 88%
Barometer: 30 inHg , 1016 hPa
Summary: Clear
Visibility: greater than 7 miles , 10 km
2019/10/17 00:30 LFLW 170030Z AUTO 10006KT CAVOK 11/09 Q1016
 
LFQG - Nevers/Fourchamb, France
Distance from station: N 84mi, 135km
Updated: Wed, 16-Oct-2019 8:00pm CEST
NOT Current
Light rain, Thunderstorm
Light rain, Thunderstorm
 Wind from S
Wind: S 7 mph , 11 km/h
Temperature: 59°F , 15°C
Dew Point: 52°F , 11°C
Humidity: 77%
Barometer: 29.88 inHg , 1012 hPa
Summary: Light Rain
Clouds: Thunderstorm
Visibility: 6 miles , 10 km
2019/10/16 18:00 LFQG 161800Z AUTO 18006KT 9999 -RA ///TCU 15/11 Q1012
LFLY - Lyon/Bron, France
Distance from station: E 86mi, 138km
Updated: Thu, 17-Oct-2019 2:30am CEST
Clear
Clear
 Wind from S
Wind: S 13 mph , 20 km/h
Temperature: 61°F , 16°C
Dew Point: 48°F , 9°C
Humidity: 63%
Barometer: 30 inHg , 1016 hPa
Summary: Clear
Visibility: greater than 7 miles , 10 km
2019/10/17 00:30 LFLY 170030Z AUTO 19011KT CAVOK 16/09 Q1016 NOSIG
 
LFOA - Avord (fafb), France
Distance from station: NNW 90mi, 145km
Updated: Thu, 17-Oct-2019 2:30am CEST
Partly Cloudy
Partly Cloudy
 Wind from S
Wind: S 10 mph , 17 km/h
Temperature: 59°F , 15°C
Dew Point: 50°F , 10°C
Humidity: 72%
Barometer: 29.91 inHg , 1013 hPa
Clouds: Partly Cloudy
Visibility: 6 miles , 10 km
Cloud details: Few Clouds 4400 ft
Partly Cloudy 6400 ft
2019/10/17 00:30 LFOA 170030Z AUTO 18009KT 9999 FEW044 SCT064 15/10 Q1013
LFLL - Lyon/Satolas, France
Distance from station: E 92mi, 147km
Updated: Thu, 17-Oct-2019 2:00am CEST
Clear
Clear
 Wind from S
Wind: S 15 mph , 24 km/h
Temperature: 61°F , 16°C
Dew Point: 48°F , 9°C
Humidity: 63%
Barometer: 30 inHg , 1016 hPa
Summary: Clear
Visibility: greater than 7 miles , 10 km
2019/10/17 00:00 LFLL 170000Z 19013KT CAVOK 16/09 Q1016 NOSIG
 
LFBL - Limoges/Bellegar, France
Distance from station: W 97mi, 155km
Updated: Thu, 17-Oct-2019 2:30am CEST
Overcast
Overcast
 Wind from SE
Wind: SE 5 mph , 7 km/h
Temperature: 57°F , 14°C
Dew Point: 50°F , 10°C
Humidity: 77%
Barometer: 29.94 inHg , 1014 hPa
Clouds: Overcast
Visibility: 6 miles , 10 km
Cloud details: Mostly Cloudy 4400 ft
Overcast 5600 ft
2019/10/17 00:30 LFBL 170030Z AUTO 14004KT 110V170 9999 BKN044 OVC056 14/10 Q1014 TEMPO 4000 -RA BKN013
LFSL - Brive/Souillac, France
Distance from station: WSW 97mi, 156km
Updated: Thu, 17-Oct-2019 2:30am CEST
Overcast
Overcast
 Wind from SSE
Wind: SSE 7 mph , 11 km/h
Temperature: 57°F , 14°C
Dew Point: 52°F , 11°C
Humidity: 82%
Barometer: 29.97 inHg , 1015 hPa
Clouds: Overcast
Visibility: 6 miles , 10 km
Cloud details: Mostly Cloudy 4800 ft
Mostly Cloudy 10000 ft
Overcast 15000 ft
2019/10/17 00:30 LFSL 170030Z AUTO 15006KT 110V180 9999 BKN048 BKN100 OVC150 14/11 Q1015
 
LFLX - Chateauroux/Deol, France
Distance from station: NW 101mi, 163km
Updated: Thu, 17-Oct-2019 2:30am CEST
Overcast
Overcast
 Wind from S
Wind: S 9 mph , 15 km/h
Temperature: 61°F , 16°C
Dew Point: 52°F , 11°C
Humidity: 72%
Barometer: 29.88 inHg , 1012 hPa
Clouds: Overcast
Visibility: 6 miles , 10 km
Cloud details: Overcast 4100 ft
2019/10/17 00:30 LFLX 170030Z AUTO 19008KT 9999 OVC041 16/11 Q1012 TEMPO 4000 -RA BKN012
LFCR - Rodez/Marcillac, France
Distance from station: SSW 103mi, 165km
Updated: Thu, 17-Oct-2019 2:30am CEST
Clear
Clear
 Wind from ESE
Wind: ESE 5 mph , 7 km/h
Temperature: 50°F , 10°C
Wind Chill: 48°F , 9°C
Dew Point: 46°F , 8°C
Humidity: 88%
Barometer: 30 inHg , 1016 hPa
Summary: Clear
Visibility: greater than 7 miles , 10 km
2019/10/17 00:30 LFCR 170030Z AUTO 12004KT CAVOK 10/08 Q1016 NOSIG
 
LFLU - Valence-Chabeuil, France
Distance from station: ESE 107mi, 172km
Updated: Wed, 16-Oct-2019 8:00pm CEST
NOT Current
Clear
Clear
 Wind from S
Wind: S 10 mph , 17 km/h
Temperature: 59°F , 15°C
Dew Point: 46°F , 8°C
Humidity: 63%
Barometer: 30 inHg , 1016 hPa
Summary: Clear
Visibility: greater than 7 miles , 10 km
2019/10/16 18:00 LFLU 161800Z AUTO 19009KT CAVOK 15/08 Q1016
LFLS - Grenoble/St. Geo, France
Distance from station: ESE 108mi, 174km
Updated: Thu, 17-Oct-2019 2:30am CEST
Clear
Clear
 Wind from E
Wind: E 8 mph , 13 km/h
Temperature: 52°F , 11°C
Dew Point: 48°F , 9°C
Humidity: 88%
Barometer: 30.03 inHg , 1017 hPa
Summary: Clear
Visibility: greater than 7 miles , 10 km
2019/10/17 00:30 LFLS 170030Z AUTO 08007KT 060V120 CAVOK 11/09 Q1017
 
LFYR - Romorantin/Pruni, France
Distance from station: NW 128mi, 205km
Updated: Thu, 17-Oct-2019 2:30am CEST
Light drizzle, Thunderstorm
Light drizzle, Thunderstorm
 Wind from varies
Wind: varies 3 mph , 6 km/h
Temperature: 57°F , 14°C
Dew Point: 57°F , 14°C
Humidity: 100%
Barometer: 29.88 inHg , 1012 hPa
Summary: Light Drizzle
Clouds: Thunderstorm
Visibility: 4 miles , 7 km
Cloud details: Mostly Cloudy 2300 ft
Overcast 3000 ft
2019/10/17 00:30 LFYR 170030Z AUTO VRB03KT 7000 -DZ BKN023/// OVC030/// ///TCU 14/14 Q1012
LFLB - Chambery/Aix Bai, France
Distance from station: E 131mi, 210km
Updated: Thu, 17-Oct-2019 2:30am CEST
Clear
Clear
 Wind from calm
Wind: Calm
Temperature: 50°F , 10°C
Dew Point: 48°F , 9°C
Humidity: 94%
Barometer: 30.06 inHg , 1018 hPa
Summary: Clear
Visibility: greater than 7 miles , 10 km
2019/10/17 00:30 LFLB 170030Z AUTO 00000KT CAVOK 10/09 Q1018 TEMPO 3000 BR
 
LFSD - Dijon/Longvic(Fa, France
Distance from station: NE 136mi, 219km
Updated: Thu, 17-Oct-2019 2:30am CEST
Light rain, Partly cloudy
Light rain, Partly cloudy
 Wind from S
Wind: S 8 mph , 13 km/h
Temperature: 55°F , 13°C
Dew Point: 50°F , 10°C
Humidity: 82%
Barometer: 29.97 inHg , 1015 hPa
Summary: Light Rain
Clouds: Partly Cloudy
Visibility: 6 miles , 10 km
2019/10/17 00:30 LFSD 170030Z AUTO 19007KT 9999 -RA NSC 13/10 Q1015
LFGJ - Dole Tavaux, France
Distance from station: NE 139mi, 223km
Updated: Thu, 17-Oct-2019 2:30am CEST
Clear
Clear
 Wind from SSW
Wind: SSW 8 mph , 13 km/h
Temperature: 57°F , 14°C
Dew Point: 50°F , 10°C
Humidity: 77%
Barometer: 29.97 inHg , 1015 hPa
Summary: Clear
Visibility: greater than 7 miles , 10 km
2019/10/17 00:30 LFGJ 170030Z AUTO 20007KT CAVOK 14/10 Q1015
 
LFLP - Annecy/Meythet, France
Distance from station: E 141mi, 226km
Updated: Thu, 17-Oct-2019 2:30am CEST
Clear
Clear
 Wind from NNE
Wind: NNE 3 mph , 6 km/h
Temperature: 50°F , 10°C
Dew Point: 46°F , 8°C
Humidity: 88%
Barometer: 30.06 inHg , 1018 hPa
Summary: Clear
Visibility: greater than 7 miles , 10 km
2019/10/17 00:30 LFLP 170030Z AUTO 03003KT CAVOK 10/08 Q1018
LFBU - Brie Champniers, France
Distance from station: W 142mi, 229km
Updated: Thu, 17-Oct-2019 2:30am CEST
Clear
Clear
 Wind from SSE
Wind: SSE 5 mph , 7 km/h
Temperature: 59°F , 15°C
Dew Point: 54°F , 12°C
Humidity: 82%
Barometer: 29.91 inHg , 1013 hPa
Summary: Clear
Visibility: greater than 7 miles , 10 km
2019/10/17 00:30 LFBU 170030Z AUTO 16004KT CAVOK 15/12 Q1013

Metar display script from Saratoga-Weather.org